createdAt,value
2022-08-26T00:01:42.323Z,6.55
2022-08-26T00:04:39.055Z,7.97
2022-08-26T00:07:32.911Z,7.40
2022-08-26T00:10:25.971Z,7.65
2022-08-26T00:13:20.652Z,9.73
2022-08-26T00:16:14.708Z,8.43
2022-08-26T00:19:07.984Z,5.47
2022-08-26T00:22:01.612Z,8.73
2022-08-26T00:24:54.505Z,6.40
2022-08-26T00:27:48.705Z,8.98
2022-08-26T00:30:42.441Z,6.65
2022-08-26T00:33:37.346Z,5.57
2022-08-26T00:36:30.803Z,6.38
2022-08-26T00:39:24.204Z,6.75
2022-08-26T00:42:17.650Z,6.05
2022-08-26T00:45:11.884Z,5.82
2022-08-26T00:48:08.808Z,6.07
2022-08-26T00:51:07.865Z,6.32
2022-08-26T00:54:05.367Z,6.65
2022-08-26T00:57:01.804Z,6.88
2022-08-26T00:59:57.336Z,6.40
2022-08-26T01:02:51.477Z,7.63
2022-08-26T01:05:45.220Z,7.38
2022-08-26T01:08:41.107Z,7.20
2022-08-26T01:11:35.303Z,9.15
2022-08-26T01:14:33.514Z,7.03
2022-08-26T01:17:26.825Z,6.35
2022-08-26T01:20:27.875Z,7.45
2022-08-26T01:23:21.988Z,7.40
2022-08-26T01:26:20.198Z,8.25
2022-08-26T01:29:19.080Z,8.50
2022-08-26T01:32:18.704Z,6.80
2022-08-26T01:35:12.253Z,10.02
2022-08-26T01:38:06.441Z,9.25
2022-08-26T01:41:04.621Z,7.60
2022-08-26T01:44:14.722Z,7.28
2022-08-26T01:47:10.115Z,7.80
2022-08-26T01:50:08.603Z,7.82
2022-08-26T01:53:06.248Z,9.65
2022-08-26T01:56:03.296Z,7.55
2022-08-26T01:58:59.117Z,7.53
2022-08-26T02:01:54.101Z,6.95
2022-08-26T02:04:52.373Z,5.65
2022-08-26T02:07:46.595Z,9.10
2022-08-26T02:10:39.808Z,8.23
2022-08-26T02:13:39.457Z,6.75
2022-08-26T02:16:37.951Z,9.30
2022-08-26T02:19:40.350Z,9.05
2022-08-26T02:22:34.354Z,6.90
2022-08-26T02:25:33.178Z,6.75
2022-08-26T02:28:30.101Z,6.47
2022-08-26T02:31:26.314Z,8.02
2022-08-26T02:34:23.650Z,6.80
2022-08-26T02:37:23.073Z,6.63
2022-08-26T02:40:21.745Z,7.78
2022-08-26T02:43:14.936Z,7.10
2022-08-26T02:46:09.011Z,7.93
2022-08-26T02:49:03.131Z,8.10
2022-08-26T02:52:01.924Z,10.13
2022-08-26T02:54:55.500Z,10.20
2022-08-26T02:57:48.619Z,7.38
2022-08-26T03:00:52.819Z,8.05
2022-08-26T03:03:47.579Z,6.05
2022-08-26T03:06:47.031Z,9.15
2022-08-26T03:09:45.850Z,8.00
2022-08-26T03:12:38.670Z,6.68
2022-08-26T03:15:32.192Z,7.75
2022-08-26T03:18:25.760Z,7.03
2022-08-26T03:21:19.958Z,7.78
2022-08-26T03:24:14.284Z,9.40
2022-08-26T03:27:07.922Z,7.28
2022-08-26T03:30:18.518Z,6.00
2022-08-26T03:33:13.166Z,9.88
2022-08-26T03:36:07.670Z,7.00
2022-08-26T03:39:01.407Z,6.85
2022-08-26T03:41:57.485Z,6.25
2022-08-26T03:44:51.983Z,6.88
2022-08-26T03:47:48.473Z,6.82
2022-08-26T03:50:43.661Z,8.63
2022-08-26T03:53:36.619Z,6.75
2022-08-26T03:56:29.607Z,6.53
2022-08-26T03:59:23.814Z,8.70
2022-08-26T04:02:18.802Z,6.78
2022-08-26T04:05:12.377Z,8.23
2022-08-26T04:08:06.967Z,7.38
2022-08-26T04:11:01.238Z,8.55
2022-08-26T04:13:54.975Z,6.53
2022-08-26T04:16:50.148Z,9.15
2022-08-26T04:19:44.092Z,8.20
2022-08-26T04:22:36.888Z,7.47
2022-08-26T04:25:30.124Z,8.48
2022-08-26T04:28:22.837Z,7.22
2022-08-26T04:31:19.424Z,7.82
2022-08-26T04:34:14.317Z,6.97
2022-08-26T04:37:08.831Z,6.97
2022-08-26T04:40:01.981Z,7.15
2022-08-26T04:42:55.929Z,8.00
2022-08-26T04:45:49.016Z,8.32
2022-08-26T04:48:42.089Z,9.70
2022-08-26T04:51:36.568Z,7.18
2022-08-26T04:54:32.688Z,9.70
2022-08-26T04:57:25.616Z,10.27
2022-08-26T05:00:19.006Z,8.90
2022-08-26T05:03:11.800Z,9.35
2022-08-26T05:06:06.561Z,8.77
2022-08-26T05:09:04.064Z,6.53
2022-08-26T05:11:56.913Z,7.70
2022-08-26T05:14:50.019Z,6.80
2022-08-26T05:17:43.394Z,8.43
2022-08-26T05:20:40.449Z,7.55
2022-08-26T05:23:37.251Z,10.10
2022-08-26T05:26:32.954Z,7.05
2022-08-26T05:29:26.923Z,7.57
2022-08-26T05:32:20.077Z,6.60
2022-08-26T05:35:14.256Z,8.65
2022-08-26T05:38:12.786Z,9.77
2022-08-26T05:41:14.250Z,8.88
2022-08-26T05:44:14.439Z,9.13
2022-08-26T05:47:08.497Z,8.13
2022-08-26T05:50:05.337Z,8.68
2022-08-26T05:52:59.214Z,7.20
2022-08-26T05:55:53.322Z,10.05
2022-08-26T05:58:48.111Z,9.15
2022-08-26T06:01:43.705Z,8.90
2022-08-26T06:04:37.743Z,9.73
2022-08-26T06:07:45.003Z,10.95
2022-08-26T06:10:44.570Z,9.60
2022-08-26T06:13:39.687Z,7.55
2022-08-26T06:16:34.660Z,8.38
2022-08-26T06:19:33.087Z,10.52
2022-08-26T06:22:44.823Z,10.75
2022-08-26T06:25:40.072Z,8.23
2022-08-26T06:28:33.520Z,8.82
2022-08-26T06:31:28.159Z,8.98
2022-08-26T06:34:23.652Z,9.55
2022-08-26T06:37:24.839Z,9.00
2022-08-26T06:40:18.621Z,12.93
2022-08-26T06:43:12.260Z,10.45
2022-08-26T06:46:08.885Z,7.90
2022-08-26T06:49:02.104Z,11.75
2022-08-26T06:51:56.455Z,11.55
2022-08-26T06:54:51.469Z,9.60
2022-08-26T06:57:45.015Z,10.23
2022-08-26T07:00:39.851Z,10.45
2022-08-26T07:03:39.782Z,9.10
2022-08-26T07:06:37.758Z,8.23
2022-08-26T07:09:33.148Z,10.65
2022-08-26T07:12:27.369Z,7.72
2022-08-26T07:15:23.980Z,9.07
2022-08-26T07:18:24.042Z,7.85
2022-08-26T07:21:18.256Z,13.00
2022-08-26T07:24:12.133Z,8.65
2022-08-26T07:27:11.475Z,8.35
2022-08-26T07:30:07.856Z,7.55
2022-08-26T07:33:00.832Z,10.35
2022-08-26T07:35:54.057Z,9.25
2022-08-26T07:38:48.677Z,6.82
2022-08-26T07:41:42.029Z,8.77
2022-08-26T07:44:37.086Z,8.68
2022-08-26T07:47:31.548Z,7.43
2022-08-26T07:50:49.100Z,8.68
2022-08-26T07:53:39.754Z,7.57
2022-08-26T07:56:32.855Z,7.47
2022-08-26T07:59:26.177Z,7.38
2022-08-26T08:02:19.420Z,7.35
2022-08-26T08:05:16.047Z,7.78
2022-08-26T08:08:26.811Z,8.20
2022-08-26T08:11:22.593Z,11.63
2022-08-26T08:14:16.721Z,7.60
2022-08-26T08:20:09.751Z,6.82
2022-08-26T08:23:05.683Z,8.32
2022-08-26T08:26:06.591Z,9.10
2022-08-26T08:29:01.845Z,7.43
2022-08-26T08:31:56.768Z,7.65
2022-08-26T08:34:50.852Z,7.72
2022-08-26T08:37:45.232Z,8.57
2022-08-26T08:40:44.996Z,11.55
2022-08-26T08:43:41.780Z,7.43
2022-08-26T08:46:35.758Z,6.70
2022-08-26T08:49:33.335Z,8.32
2022-08-26T08:52:30.683Z,9.52
2022-08-26T08:55:31.921Z,8.48
2022-08-26T08:58:38.112Z,11.82
2022-08-26T09:01:46.370Z,8.82
2022-08-26T09:05:02.171Z,7.90
2022-08-26T09:07:59.740Z,8.90
2022-08-26T09:10:56.158Z,6.95
2022-08-26T09:13:55.286Z,8.75
2022-08-26T09:16:57.257Z,8.35
2022-08-26T09:19:53.850Z,9.10
2022-08-26T09:22:47.273Z,8.13
2022-08-26T09:25:48.773Z,10.65
2022-08-26T09:28:45.899Z,10.82
2022-08-26T09:31:41.443Z,9.88
2022-08-26T09:34:36.054Z,8.70
2022-08-26T09:37:40.362Z,7.63
2022-08-26T09:40:35.602Z,8.50
2022-08-26T09:43:30.009Z,10.57
2022-08-26T09:46:29.110Z,9.60
2022-08-26T09:49:31.624Z,8.43
2022-08-26T09:52:27.818Z,8.23
2022-08-26T09:55:24.193Z,9.85
2022-08-26T09:58:33.158Z,9.40
2022-08-26T10:01:33.472Z,7.60
2022-08-26T10:04:30.556Z,8.93
2022-08-26T10:07:40.638Z,9.18
2022-08-26T10:10:39.089Z,11.65
2022-08-26T10:13:36.465Z,7.57
2022-08-26T10:16:40.681Z,8.43
2022-08-26T10:19:56.176Z,9.40
2022-08-26T10:22:56.399Z,8.65
2022-08-26T10:25:54.529Z,8.80
2022-08-26T10:28:57.196Z,10.20
2022-08-26T10:32:02.442Z,10.18
2022-08-26T10:34:58.678Z,8.85
2022-08-26T10:37:55.834Z,8.07
2022-08-26T10:40:55.033Z,10.30
2022-08-26T10:43:52.445Z,7.53
2022-08-26T10:46:52.563Z,9.68
2022-08-26T10:49:50.119Z,10.38
2022-08-26T10:52:56.656Z,10.48
2022-08-26T10:55:57.728Z,9.10
2022-08-26T10:58:59.661Z,8.90
2022-08-26T11:02:03.903Z,8.25
2022-08-26T11:04:59.398Z,9.48
2022-08-26T11:08:30.784Z,7.70
2022-08-26T11:11:46.949Z,9.27
2022-08-26T11:14:53.678Z,7.90
2022-08-26T11:17:58.470Z,9.82
2022-08-26T11:20:53.706Z,11.60
2022-08-26T11:23:50.569Z,12.55
2022-08-26T11:26:56.375Z,10.93
2022-08-26T11:30:02.936Z,8.80
2022-08-26T11:32:58.764Z,10.93
2022-08-26T11:35:52.395Z,11.38
2022-08-26T11:38:46.569Z,9.93
2022-08-26T11:41:44.270Z,10.88
2022-08-26T11:44:41.302Z,12.18
2022-08-26T11:47:42.474Z,11.77
2022-08-26T11:50:35.565Z,10.48
2022-08-26T11:53:32.464Z,11.63
2022-08-26T11:56:32.337Z,10.40
2022-08-26T12:02:29.994Z,10.52
2022-08-26T12:05:31.012Z,11.88
2022-08-26T12:08:28.564Z,10.93
2022-08-26T12:11:25.124Z,11.55
2022-08-26T12:14:21.328Z,11.43
2022-08-26T12:17:19.274Z,11.25
2022-08-26T12:20:21.189Z,11.55
2022-08-26T12:23:25.972Z,11.20
2022-08-26T12:26:26.305Z,10.50
2022-08-26T12:29:27.237Z,10.20
2022-08-26T12:32:25.768Z,11.30
2022-08-26T12:35:21.766Z,15.68
2022-08-26T12:38:16.205Z,13.52
2022-08-26T12:41:09.180Z,12.30
2022-08-26T12:44:02.859Z,11.10
2022-08-26T12:47:03.408Z,13.35
2022-08-26T12:50:07.931Z,10.88
2022-08-26T12:53:03.793Z,13.00
2022-08-26T12:56:00.183Z,11.07
2022-08-26T12:59:07.714Z,10.77
2022-08-26T13:02:01.670Z,11.63
2022-08-26T13:05:00.858Z,10.90
2022-08-26T13:08:14.923Z,11.23
2022-08-26T13:11:13.760Z,11.77
2022-08-26T13:14:09.971Z,12.43
2022-08-26T13:17:03.149Z,12.50
2022-08-26T13:20:01.268Z,14.27
2022-08-26T13:22:59.102Z,11.13
2022-08-26T13:25:54.083Z,13.95
2022-08-26T13:28:55.281Z,13.43
2022-08-26T13:31:56.563Z,11.35
2022-08-26T13:34:54.055Z,13.45
2022-08-26T13:37:47.368Z,10.60
2022-08-26T13:40:40.731Z,11.68
2022-08-26T13:43:36.171Z,11.32
2022-08-26T13:46:30.265Z,12.63
2022-08-26T13:49:23.827Z,13.95
2022-08-26T13:52:17.507Z,15.23
2022-08-26T13:55:23.219Z,12.02
2022-08-26T13:58:17.139Z,11.60
2022-08-26T14:01:12.085Z,12.18
2022-08-26T14:04:05.519Z,12.05
2022-08-26T14:06:58.713Z,12.55
2022-08-26T14:09:52.350Z,12.60
2022-08-26T14:12:45.773Z,12.85
2022-08-26T14:15:39.770Z,11.82
2022-08-26T14:18:41.670Z,13.05
2022-08-26T14:21:37.546Z,12.85
2022-08-26T14:24:30.916Z,12.15
2022-08-26T14:27:25.222Z,11.23
2022-08-26T14:30:19.447Z,13.68
2022-08-26T14:33:14.401Z,12.88
2022-08-26T14:36:26.225Z,11.68
2022-08-26T14:39:19.136Z,11.05
2022-08-26T14:42:23.876Z,10.10
2022-08-26T14:45:20.430Z,10.77
2022-08-26T14:48:14.117Z,10.98
2022-08-26T14:51:09.111Z,10.15
2022-08-26T14:54:16.248Z,10.38
2022-08-26T14:57:14.113Z,10.82
2022-08-26T15:00:10.611Z,9.05
2022-08-26T15:03:03.604Z,11.27
2022-08-26T15:05:58.534Z,9.73
2022-08-26T15:08:52.565Z,10.88
2022-08-26T15:11:47.581Z,10.05
2022-08-26T15:14:41.422Z,11.35
2022-08-26T15:17:34.411Z,9.73
2022-08-26T15:20:27.499Z,10.20
2022-08-26T15:23:20.691Z,10.88
2022-08-26T15:26:16.579Z,10.75
2022-08-26T15:29:09.611Z,10.88
2022-08-26T15:32:02.638Z,11.00
2022-08-26T15:34:55.457Z,11.25
2022-08-26T15:37:48.824Z,11.23
2022-08-26T15:40:43.131Z,14.27
2022-08-26T15:43:38.790Z,12.43
2022-08-26T15:46:32.681Z,11.82
2022-08-26T15:49:25.624Z,11.82
2022-08-26T15:52:18.984Z,11.30
2022-08-26T15:55:12.549Z,12.82
2022-08-26T15:58:05.329Z,11.55
2022-08-26T16:00:59.984Z,12.25
2022-08-26T16:03:54.021Z,12.88
2022-08-26T16:06:50.040Z,12.18
2022-08-26T16:09:44.006Z,13.02
2022-08-26T16:12:37.646Z,13.70
2022-08-26T16:15:30.418Z,13.82
2022-08-26T16:18:24.914Z,12.93
2022-08-26T16:21:22.098Z,12.65
2022-08-26T16:24:15.903Z,15.52
2022-08-26T16:27:10.019Z,12.93
2022-08-26T16:30:06.694Z,12.40
2022-08-26T16:33:00.113Z,13.90
2022-08-26T16:35:55.713Z,14.10
2022-08-26T16:38:53.885Z,13.35
2022-08-26T16:41:47.687Z,13.90
2022-08-26T16:44:45.474Z,14.77
2022-08-26T16:47:38.819Z,14.85
2022-08-26T16:50:33.074Z,16.10
2022-08-26T16:53:27.739Z,15.10
2022-08-26T16:56:23.391Z,13.88
2022-08-26T16:59:27.917Z,15.27
2022-08-26T17:02:21.542Z,16.15
2022-08-26T17:05:14.868Z,15.48
2022-08-26T17:08:09.214Z,18.55
2022-08-26T17:11:03.931Z,13.55
2022-08-26T17:13:57.428Z,15.07
2022-08-26T17:16:53.216Z,17.17
2022-08-26T17:19:47.482Z,15.45
2022-08-26T17:22:42.267Z,14.68
2022-08-26T17:25:35.907Z,15.32
2022-08-26T17:28:31.921Z,17.63
2022-08-26T17:31:26.985Z,15.82
2022-08-26T17:34:22.416Z,16.33
2022-08-26T17:37:16.796Z,18.58
2022-08-26T17:40:13.276Z,17.52
2022-08-26T17:43:10.391Z,18.88
2022-08-26T17:46:09.051Z,19.90
2022-08-26T17:49:02.950Z,18.77
2022-08-26T17:51:59.309Z,17.80
2022-08-26T17:54:53.654Z,17.98
2022-08-26T17:57:53.563Z,17.75
2022-08-26T18:00:49.060Z,18.23
2022-08-26T18:03:44.063Z,23.67
2022-08-26T18:06:39.194Z,23.40
2022-08-26T18:09:32.912Z,23.45
2022-08-26T18:12:26.587Z,23.90
2022-08-26T18:15:21.261Z,22.83
2022-08-26T18:18:15.442Z,22.60
2022-08-26T18:21:15.531Z,22.15
2022-08-26T18:24:13.379Z,21.30
2022-08-26T18:27:07.276Z,19.08
2022-08-26T18:30:00.502Z,20.60
2022-08-26T18:32:53.945Z,20.45
2022-08-26T18:35:47.878Z,17.92
2022-08-26T18:38:43.089Z,18.85
2022-08-26T18:41:42.318Z,16.95
2022-08-26T18:44:35.481Z,16.40
2022-08-26T18:47:29.973Z,18.60
2022-08-26T18:50:24.088Z,18.17
2022-08-26T18:53:18.045Z,17.30
2022-08-26T18:56:15.371Z,18.42
2022-08-26T18:59:12.229Z,15.50
2022-08-26T19:02:05.851Z,18.83
2022-08-26T19:04:58.891Z,14.10
2022-08-26T19:07:52.856Z,16.88
2022-08-26T19:10:45.585Z,14.93
2022-08-26T19:13:40.060Z,14.90
2022-08-26T19:16:34.166Z,14.25
2022-08-26T19:19:27.540Z,15.73
2022-08-26T19:22:20.800Z,12.75
2022-08-26T19:25:13.902Z,14.18
2022-08-26T19:28:07.738Z,13.15
2022-08-26T19:31:02.776Z,14.32
2022-08-26T19:33:56.630Z,17.00
2022-08-26T19:36:50.379Z,13.20
2022-08-26T19:39:43.769Z,16.60
2022-08-26T19:42:36.618Z,13.10
2022-08-26T19:45:30.454Z,14.40
2022-08-26T19:48:24.734Z,18.60
2022-08-26T19:51:20.050Z,13.40
2022-08-26T19:54:13.513Z,14.93
2022-08-26T19:57:07.353Z,13.73
2022-08-26T20:00:01.017Z,15.45
2022-08-26T20:02:55.640Z,15.20
2022-08-26T20:05:50.043Z,17.02
2022-08-26T20:08:44.702Z,16.15
2022-08-26T20:11:37.959Z,13.10
2022-08-26T20:14:32.029Z,12.77
2022-08-26T20:17:25.694Z,12.45
2022-08-26T20:20:36.857Z,16.23
2022-08-26T20:23:30.853Z,14.60
2022-08-26T20:26:23.836Z,12.13
2022-08-26T20:29:18.642Z,14.05
2022-08-26T20:32:12.455Z,13.55
2022-08-26T20:35:07.914Z,14.27
2022-08-26T20:38:00.900Z,13.25
2022-08-26T20:40:56.168Z,13.52
2022-08-26T20:43:49.665Z,12.18
2022-08-26T20:46:42.769Z,13.15
2022-08-26T20:49:36.498Z,13.05
2022-08-26T20:52:29.771Z,12.95
2022-08-26T20:55:22.725Z,10.90
2022-08-26T20:58:16.743Z,11.60
2022-08-26T21:01:18.984Z,11.43
2022-08-26T21:04:15.917Z,11.75
2022-08-26T21:07:09.119Z,11.05
2022-08-26T21:10:02.827Z,11.27
2022-08-26T21:12:56.782Z,12.38
2022-08-26T21:15:50.679Z,12.38
2022-08-26T21:18:43.729Z,13.45
2022-08-26T21:21:36.639Z,13.50
2022-08-26T21:24:30.281Z,12.65
2022-08-26T21:27:26.309Z,13.07
2022-08-26T21:30:20.253Z,12.18
2022-08-26T21:33:15.009Z,10.63
2022-08-26T21:36:09.906Z,10.93
2022-08-26T21:39:04.444Z,11.10
2022-08-26T21:41:59.198Z,12.30
2022-08-26T21:44:54.784Z,10.88
2022-08-26T21:47:48.208Z,12.30
2022-08-26T21:50:42.951Z,11.18
2022-08-26T21:53:36.980Z,13.27
2022-08-26T21:56:32.381Z,11.65
2022-08-26T21:59:26.112Z,11.65
2022-08-26T22:02:20.299Z,12.23
2022-08-26T22:05:14.530Z,14.40
2022-08-26T22:08:09.350Z,10.70
2022-08-26T22:11:03.883Z,13.23
2022-08-26T22:13:57.656Z,9.18
2022-08-26T22:16:51.335Z,10.07
2022-08-26T22:19:46.290Z,11.48
2022-08-26T22:22:40.542Z,11.52
2022-08-26T22:25:35.794Z,8.60
2022-08-26T22:28:29.111Z,11.15
2022-08-26T22:31:23.050Z,8.63
2022-08-26T22:34:23.624Z,10.68
2022-08-26T22:37:16.646Z,9.43
2022-08-26T22:40:13.114Z,10.68
2022-08-26T22:43:08.146Z,13.10
2022-08-26T22:46:02.941Z,10.15
2022-08-26T22:48:55.940Z,9.45
2022-08-26T22:51:49.913Z,10.07
2022-08-26T22:54:42.931Z,9.55
2022-08-26T22:57:36.207Z,8.68
2022-08-26T23:00:32.609Z,10.25
2022-08-26T23:03:26.866Z,10.32
2022-08-26T23:06:20.082Z,10.88
2022-08-26T23:09:14.716Z,9.95
2022-08-26T23:12:08.376Z,10.88
2022-08-26T23:15:02.783Z,8.38
2022-08-26T23:17:58.565Z,11.48
2022-08-26T23:20:52.361Z,11.52
2022-08-26T23:23:46.267Z,8.60
2022-08-26T23:26:42.026Z,9.60
2022-08-26T23:29:35.638Z,10.23
2022-08-26T23:32:29.253Z,9.55
2022-08-26T23:35:25.296Z,9.25
2022-08-26T23:38:19.094Z,10.48
2022-08-26T23:41:13.446Z,8.30
2022-08-26T23:44:10.860Z,9.95
2022-08-26T23:47:04.825Z,9.65
2022-08-26T23:49:58.013Z,10.50
2022-08-26T23:53:06.264Z,10.45
2022-08-26T23:56:00.054Z,10.23
2022-08-26T23:58:52.707Z,9.95
